Time;durP1;ratioP1;P1;durP2;ratioP2;P2;SDS_P1;SDS_P2;PMS_P1;PMS_P2;Temp;Humidity;BMP_temperature;BMP_pressure;BME280_temperature;BME280_humidity;BME280_pressure;Samples;Min_cycle;Max_cycle;Signal;HPM_P1;HPM_P2
2023/04/29 00:01:17;;;;;;;42.58;26.90;;;9.90;99.90;;;;;;5052559;28;20048;-80
2023/04/29 00:03:43;;;;;;;40.20;28.67;;;9.90;99.90;;;;;;5053930;28;20131;-83
2023/04/29 00:06:10;;;;;;;37.63;27.38;;;9.90;99.90;;;;;;5052252;28;20061;-82
2023/04/29 00:08:36;;;;;;;41.75;28.77;;;9.80;99.90;;;;;;5053886;28;20059;-81
2023/04/29 00:11:02;;;;;;;38.17;26.77;;;9.80;99.90;;;;;;5052010;28;20088;-82
2023/04/29 00:13:28;;;;;;;34.65;25.98;;;9.90;99.90;;;;;;5053096;28;20053;-81
2023/04/29 00:15:54;;;;;;;40.90;25.20;;;9.90;99.90;;;;;;5053096;28;20098;-82
2023/04/29 00:18:20;;;;;;;40.92;26.50;;;9.90;99.90;;;;;;5053049;28;20479;-78
2023/04/29 00:20:45;;;;;;;34.05;25.67;;;9.90;99.90;;;;;;5053209;28;20494;-79
2023/04/29 00:23:11;;;;;;;43.58;27.27;;;9.80;99.90;;;;;;5052986;28;20045;-83
2023/04/29 00:25:37;;;;;;;40.30;27.05;;;9.80;99.90;;;;;;5053165;28;20045;-83
2023/04/29 00:28:04;;;;;;;38.45;26.25;;;9.80;99.90;;;;;;5053306;28;20053;-80
2023/04/29 00:30:31;;;;;;;39.60;27.48;;;9.70;99.90;;;;;;5053303;28;20053;-80
2023/04/29 00:32:57;;;;;;;42.65;28.73;;;9.80;99.90;;;;;;5052752;28;20086;-77
2023/04/29 00:35:22;;;;;;;44.13;28.23;;;9.80;99.90;;;;;;5053105;28;20135;-81
2023/04/29 00:37:48;;;;;;;39.78;27.63;;;9.70;99.90;;;;;;5053530;28;20158;-79
2023/04/29 00:40:16;;;;;;;39.85;28.60;;;9.70;99.90;;;;;;5055793;28;20126;-81
2023/04/29 00:42:42;;;;;;;45.28;29.88;;;9.70;99.90;;;;;;5054001;28;20140;-81
2023/04/29 00:45:10;;;;;;;43.67;30.38;;;9.70;99.90;;;;;;5054073;28;20079;-86
2023/04/29 00:47:36;;;;;;;37.22;27.30;;;9.70;99.90;;;;;;5053475;28;20110;-80
2023/04/29 00:50:03;;;;;;;40.88;26.42;;;9.40;99.90;;;;;;5053051;28;20076;-80
2023/04/29 00:52:30;;;;;;;48.08;30.20;;;9.70;99.90;;;;;;5052495;28;20396;-81
2023/04/29 00:54:57;;;;;;;45.47;28.70;;;8.90;99.90;;;;;;5052476;28;20051;-80
2023/04/29 00:57:22;;;;;;;39.92;27.38;;;9.70;99.90;;;;;;5052651;28;20048;-81
2023/04/29 00:59:49;;;;;;;44.58;28.60;;;9.70;99.90;;;;;;5052761;28;20561;-80
2023/04/29 01:02:16;;;;;;;42.72;28.83;;;9.60;99.90;;;;;;5051776;28;20484;-78
2023/04/29 01:04:42;;;;;;;45.25;26.30;;;9.60;99.90;;;;;;5052834;28;20475;-81
2023/04/29 01:07:31;;;;;;;39.30;27.10;;;9.60;99.90;;;;;;5052032;28;20525;-78
2023/04/29 01:10:13;;;;;;;36.03;25.23;;;9.60;99.90;;;;;;5052365;28;20499;-80
2023/04/29 01:12:48;;;;;;;39.83;25.58;;;9.60;99.90;;;;;;5052733;28;20106;-81
2023/04/29 01:15:16;;;;;;;38.97;25.02;;;9.60;99.90;;;;;;5052693;28;20064;-81
2023/04/29 01:18:03;;;;;;;36.47;24.70;;;9.70;99.90;;;;;;5052330;28;20393;-78
2023/04/29 01:20:30;;;;;;;34.67;24.30;;;9.70;99.90;;;;;;5037779;28;20053;-80
2023/04/29 01:22:56;;;;;;;32.38;23.25;;;9.70;99.90;;;;;;5052159;28;20059;-76
2023/04/29 01:25:22;;;;;;;35.42;23.77;;;9.70;99.90;;;;;;5052258;28;20060;-81
2023/04/29 01:28:06;;;;;;;38.53;21.92;;;9.70;99.90;;;;;;5052194;28;20049;-77
2023/04/29 01:30:52;;;;;;;28.88;22.35;;;9.70;99.90;;;;;;5052159;28;20045;-79
2023/04/29 01:33:59;;;;;;;33.83;20.60;;;9.60;99.90;;;;;;5052312;28;20556;-80
2023/04/29 01:36:36;;;;;;;28.73;21.20;;;9.50;99.90;;;;;;5007559;28;20068;-77
2023/04/29 01:39:26;;;;;;;33.13;20.38;;;9.50;99.90;;;;;;5051176;28;20087;-78
2023/04/29 01:42:25;;;;;;;31.20;20.35;;;9.60;99.90;;;;;;5051509;28;20083;-79
2023/04/29 01:44:54;;;;;;;34.40;20.48;;;9.50;99.90;;;;;;5052064;28;20045;-78
2023/04/29 01:47:20;;;;;;;31.45;20.98;;;9.60;99.90;;;;;;5052261;28;20098;-79
2023/04/29 01:49:46;;;;;;;30.35;20.38;;;9.50;99.90;;;;;;5052202;28;20523;-78
2023/04/29 01:52:12;;;;;;;32.63;18.27;;;9.50;99.90;;;;;;5051522;28;20045;-80
2023/04/29 01:54:38;;;;;;;28.88;19.50;;;9.50;99.90;;;;;;5051394;28;20045;-79
2023/04/29 01:57:03;;;;;;;26.85;18.98;;;9.40;99.90;;;;;;5051914;28;20052;-79
2023/04/29 01:59:29;;;;;;;28.63;19.88;;;9.50;99.90;;;;;;5052136;28;20041;-79
2023/04/29 02:01:58;;;;;;;31.55;19.95;;;9.50;99.90;;;;;;5051563;28;20483;-77
2023/04/29 02:04:27;;;;;;;27.73;19.95;;;9.50;99.90;;;;;;5050965;28;20132;-81
2023/04/29 02:06:53;;;;;;;28.85;19.92;;;9.50;99.90;;;;;;5059031;28;20512;-78
2023/04/29 02:09:18;;;;;;;35.50;19.80;;;9.50;99.90;;;;;;5068178;28;20045;-79
2023/04/29 02:11:44;;;;;;;36.50;22.35;;;9.60;99.90;;;;;;5064043;28;20045;-78
2023/04/29 02:14:11;;;;;;;28.65;19.48;;;9.50;99.90;;;;;;5067393;28;20087;-75
2023/04/29 02:16:37;;;;;;;27.83;20.23;;;9.50;99.90;;;;;;5062800;28;20050;-79
2023/04/29 02:19:03;;;;;;;37.67;21.45;;;9.50;99.90;;;;;;5056212;28;20048;-81
2023/04/29 02:21:28;;;;;;;34.15;20.42;;;9.50;99.90;;;;;;5056176;28;20466;-82
2023/04/29 02:23:54;;;;;;;32.85;20.17;;;9.50;99.90;;;;;;5055649;28;20041;-80
2023/04/29 02:26:20;;;;;;;28.58;19.88;;;9.50;99.90;;;;;;5055553;28;20122;-80
2023/04/29 02:28:46;;;;;;;31.42;21.08;;;9.40;99.90;;;;;;5055587;28;20055;-78
2023/04/29 02:31:12;;;;;;;28.27;20.75;;;9.50;99.90;;;;;;5037997;28;20045;-79
2023/04/29 02:33:38;;;;;;;28.58;19.98;;;9.40;99.90;;;;;;5055261;28;20049;-78
2023/04/29 02:36:04;;;;;;;27.63;20.80;;;9.40;99.90;;;;;;5055989;28;20074;-81
2023/04/29 02:38:29;;;;;;;31.17;21.15;;;9.40;99.90;;;;;;5054475;28;20057;-81
2023/04/29 02:40:56;;;;;;;32.42;20.33;;;9.40;99.90;;;;;;5055294;28;20049;-78
2023/04/29 02:43:22;;;;;;;27.40;18.98;;;9.40;99.90;;;;;;5055059;28;20467;-78
2023/04/29 02:45:47;;;;;;;35.22;20.52;;;9.40;99.90;;;;;;5055129;28;20128;-79
2023/04/29 02:48:13;;;;;;;28.63;19.20;;;9.30;99.90;;;;;;5054978;28;20080;-80
2023/04/29 02:50:39;;;;;;;27.17;20.50;;;9.40;99.90;;;;;;5053523;28;20056;-81
2023/04/29 02:53:04;;;;;;;29.45;19.45;;;9.30;99.90;;;;;;5054136;28;20106;-80
2023/04/29 02:55:30;;;;;;;32.75;21.92;;;9.30;99.90;;;;;;5054651;28;20056;-80
2023/04/29 02:57:56;;;;;;;32.00;20.60;;;9.30;99.90;;;;;;5054725;28;20052;-80
2023/04/29 03:00:22;;;;;;;41.95;21.23;;;9.30;99.90;;;;;;5054609;28;20126;-79
2023/04/29 03:02:48;;;;;;;29.10;20.25;;;8.90;99.90;;;;;;5054702;28;20045;-79
2023/04/29 03:05:14;;;;;;;30.98;20.75;;;9.30;99.90;;;;;;5053366;28;20049;-78
2023/04/29 03:07:40;;;;;;;28.88;20.80;;;9.30;99.90;;;;;;5054556;28;20053;-79
2023/04/29 03:10:06;;;;;;;32.25;21.73;;;9.30;99.90;;;;;;5053775;28;20049;-78
2023/04/29 03:12:32;;;;;;;34.38;20.45;;;9.30;99.90;;;;;;5054378;28;20053;-79
2023/04/29 03:14:58;;;;;;;31.13;21.08;;;9.30;99.90;;;;;;5054345;28;20477;-80
2023/04/29 03:17:24;;;;;;;33.28;21.08;;;9.30;99.90;;;;;;5054412;28;20053;-80
2023/04/29 03:19:51;;;;;;;32.90;20.70;;;9.20;99.90;;;;;;5053331;28;20527;-80
2023/04/29 03:22:17;;;;;;;36.20;21.75;;;9.20;99.90;;;;;;5054668;28;20053;-80
2023/04/29 03:24:43;;;;;;;28.52;20.88;;;9.20;99.90;;;;;;5051844;28;20458;-76
2023/04/29 03:27:10;;;;;;;34.42;21.75;;;9.20;99.90;;;;;;5054163;28;20053;-80
2023/04/29 03:29:35;;;;;;;30.13;21.30;;;9.10;99.90;;;;;;5053003;28;20048;-79
2023/04/29 03:32:01;;;;;;;31.23;22.35;;;9.20;99.90;;;;;;5053995;28;20045;-80
2023/04/29 03:34:27;;;;;;;34.47;21.63;;;9.20;99.90;;;;;;5054097;28;20044;-79
2023/04/29 03:36:53;;;;;;;32.50;22.67;;;9.20;99.90;;;;;;5053724;28;20390;-78
2023/04/29 03:39:19;;;;;;;27.05;20.20;;;9.20;99.90;;;;;;5054463;28;20059;-79
2023/04/29 03:41:46;;;;;;;29.10;18.83;;;9.20;99.90;;;;;;5053967;28;20041;-80
2023/04/29 03:44:12;;;;;;;24.67;16.85;;;9.20;99.90;;;;;;5053724;28;20098;-81
2023/04/29 03:46:38;;;;;;;28.85;18.65;;;9.20;99.90;;;;;;5052903;28;20045;-81
2023/04/29 03:49:03;;;;;;;26.08;17.92;;;9.20;99.90;;;;;;5053830;28;20049;-80
2023/04/29 03:51:29;;;;;;;24.42;16.73;;;9.30;99.90;;;;;;5053947;28;20480;-81
2023/04/29 03:53:56;;;;;;;24.65;15.48;;;9.20;99.90;;;;;;5053075;28;20045;-78
2023/04/29 03:56:24;;;;;;;22.13;15.18;;;9.20;99.90;;;;;;5053539;28;20049;-81
2023/04/29 03:58:52;;;;;;;24.48;16.63;;;9.10;99.90;;;;;;5052397;28;20052;-82
2023/04/29 04:01:18;;;;;;;23.00;15.20;;;9.20;99.90;;;;;;5053405;28;20041;-80
2023/04/29 04:03:44;;;;;;;17.85;13.85;;;9.20;99.90;;;;;;5053365;28;20565;-79
2023/04/29 04:06:10;;;;;;;21.77;13.88;;;9.20;99.90;;;;;;5052959;28;20045;-79
2023/04/29 04:08:35;;;;;;;22.33;13.70;;;9.20;99.90;;;;;;5053298;28;20050;-80
2023/04/29 04:11:02;;;;;;;18.13;13.20;;;9.20;99.90;;;;;;5053175;28;20393;-78
2023/04/29 04:13:30;;;;;;;20.83;13.85;;;9.20;99.90;;;;;;5052826;28;20478;-80
2023/04/29 04:15:56;;;;;;;21.55;13.70;;;9.20;99.90;;;;;;5053002;28;20488;-81
2023/04/29 04:18:22;;;;;;;19.77;14.13;;;9.20;99.90;;;;;;5053071;28;20127;-80
2023/04/29 04:20:48;;;;;;;18.42;13.05;;;9.20;99.90;;;;;;5053046;28;20052;-78
2023/04/29 04:23:14;;;;;;;20.30;13.43;;;9.20;99.90;;;;;;5052976;28;20053;-79
2023/04/29 04:25:47;;;;;;;19.90;11.93;;;9.20;99.90;;;;;;5052009;28;20044;-79
2023/04/29 04:28:13;;;;;;;;;;;9.30;99.90;;;;;;5054088;28;20049;-79
2023/04/29 04:30:39;;;;;;;17.88;13.25;;;9.10;99.90;;;;;;5053660;28;19940;-80
2023/04/29 04:33:04;;;;;;;22.83;13.50;;;9.20;99.90;;;;;;5053010;28;20041;-79
2023/04/29 04:35:30;;;;;;;20.63;13.98;;;9.20;99.90;;;;;;5052793;28;20064;-80
2023/04/29 04:37:56;;;;;;;24.15;13.13;;;9.20;99.90;;;;;;5051978;28;20061;-80
2023/04/29 04:40:22;;;;;;;17.58;13.25;;;9.20;99.90;;;;;;5052633;28;20041;-80
2023/04/29 04:42:47;;;;;;;21.50;13.05;;;9.20;99.90;;;;;;5052680;28;20053;-80
2023/04/29 04:45:13;;;;;;;15.82;12.68;;;9.20;99.90;;;;;;5052145;28;20045;-78
2023/04/29 04:47:42;;;;;;;19.67;13.57;;;9.20;99.90;;;;;;5052615;28;20092;-80
2023/04/29 04:50:08;;;;;;;20.33;13.63;;;9.20;99.90;;;;;;5052449;28;20048;-76
2023/04/29 04:52:34;;;;;;;19.67;13.88;;;9.20;99.90;;;;;;5052577;28;20137;-80
2023/04/29 04:54:59;;;;;;;18.35;13.82;;;9.20;99.90;;;;;;5053134;28;20076;-80
2023/04/29 04:57:25;;;;;;;19.13;13.38;;;9.20;99.90;;;;;;5053100;28;20102;-80
2023/04/29 04:59:51;;;;;;;20.17;13.27;;;9.20;99.90;;;;;;5052224;28;20533;-77
2023/04/29 05:02:17;;;;;;;22.35;12.95;;;9.20;99.90;;;;;;5052840;28;20083;-81
2023/04/29 05:04:43;;;;;;;20.23;13.57;;;9.30;99.90;;;;;;5052434;28;20049;-80
2023/04/29 05:07:09;;;;;;;21.55;13.93;;;9.30;99.90;;;;;;5052486;28;20055;-79
2023/04/29 05:09:35;;;;;;;25.08;13.55;;;9.30;99.90;;;;;;5052621;28;20041;-80
2023/04/29 05:12:01;;;;;;;20.52;13.23;;;9.30;99.90;;;;;;5052340;28;20051;-81
2023/04/29 05:14:28;;;;;;;23.38;14.32;;;9.30;99.90;;;;;;5034462;28;20525;-80
2023/04/29 05:17:00;;;;;;;23.55;15.55;;;9.30;99.90;;;;;;5053029;28;20049;-80
2023/04/29 05:19:26;;;;;;;20.45;14.32;;;9.30;99.90;;;;;;5065147;28;20131;-77
2023/04/29 05:21:52;;;;;;;20.70;14.68;;;9.20;99.90;;;;;;5069248;28;20056;-76
2023/04/29 05:24:17;;;;;;;20.63;13.25;;;9.30;99.90;;;;;;5065590;28;20052;-81
2023/04/29 05:26:43;;;;;;;22.05;14.18;;;9.30;99.90;;;;;;5064567;28;20125;-76
2023/04/29 05:29:09;;;;;;;15.35;12.32;;;9.40;99.90;;;;;;5053191;28;20057;-79
2023/04/29 05:31:36;;;;;;;21.85;15.23;;;9.30;99.90;;;;;;5052900;28;20045;-80
2023/04/29 05:34:01;;;;;;;22.05;14.35;;;9.30;99.90;;;;;;5053039;28;20048;-80
2023/04/29 05:36:27;;;;;;;18.92;14.15;;;9.40;99.90;;;;;;5052655;28;20048;-81
2023/04/29 05:38:53;;;;;;;21.15;13.65;;;9.30;99.90;;;;;;5052974;28;20484;-80
2023/04/29 05:41:19;;;;;;;20.80;13.95;;;9.40;99.90;;;;;;5052512;28;20454;-80
2023/04/29 05:43:45;;;;;;;19.75;13.68;;;9.40;99.90;;;;;;5052259;28;20427;-78
2023/04/29 05:46:11;;;;;;;17.08;13.30;;;9.40;99.90;;;;;;5052154;28;20044;-80
2023/04/29 05:48:36;;;;;;;21.48;13.38;;;9.40;99.90;;;;;;5054936;28;20592;-80
2023/04/29 05:51:02;;;;;;;18.40;13.25;;;9.50;99.90;;;;;;5055911;28;20041;-81
2023/04/29 05:53:28;;;;;;;20.65;13.05;;;9.50;99.90;;;;;;5055297;28;20056;-78
2023/04/29 05:55:53;;;;;;;16.60;11.43;;;9.50;99.90;;;;;;5055828;28;20045;-80
2023/04/29 05:58:19;;;;;;;18.13;12.90;;;9.50;99.90;;;;;;5056228;28;20547;-80
2023/04/29 06:00:45;;;;;;;14.95;12.20;;;9.50;99.90;;;;;;5055858;28;20465;-77
2023/04/29 06:03:11;;;;;;;18.67;11.98;;;9.40;99.90;;;;;;5055936;28;20080;-77
2023/04/29 06:05:37;;;;;;;16.73;11.38;;;9.60;99.90;;;;;;5055626;28;20051;-79
2023/04/29 06:08:04;;;;;;;17.40;11.38;;;9.50;99.90;;;;;;5055675;28;20044;-79
2023/04/29 06:10:31;;;;;;;17.55;11.48;;;9.70;99.90;;;;;;5055724;28;20052;-78
2023/04/29 06:12:56;;;;;;;18.30;10.20;;;9.70;99.90;;;;;;5055539;28;20045;-80
2023/04/29 06:15:22;;;;;;;14.38;11.40;;;9.70;99.90;;;;;;5054991;28;20122;-76
2023/04/29 06:17:48;;;;;;;19.85;11.65;;;9.80;99.90;;;;;;5055151;28;20079;-80
2023/04/29 06:20:13;;;;;;;18.33;11.20;;;9.90;99.90;;;;;;5055318;28;20455;-79
2023/04/29 06:22:39;;;;;;;17.75;10.90;;;10.00;99.90;;;;;;5038166;28;20595;-81
2023/04/29 06:25:05;;;;;;;12.75;9.80;;;10.00;99.90;;;;;;5055267;28;20370;-77
2023/04/29 06:27:31;;;;;;;17.73;10.63;;;10.10;99.90;;;;;;5055487;28;20065;-78
2023/04/29 06:29:56;;;;;;;15.85;9.85;;;10.10;99.90;;;;;;5054684;28;20041;-80
2023/04/29 06:32:22;;;;;;;17.42;9.65;;;10.20;99.90;;;;;;5055035;28;20045;-79
2023/04/29 06:34:48;;;;;;;12.13;8.98;;;10.20;99.90;;;;;;5055058;28;20041;-80
2023/04/29 06:37:14;;;;;;;16.48;9.68;;;10.40;99.90;;;;;;5055233;28;20106;-82
2023/04/29 06:39:40;;;;;;;16.25;9.80;;;10.40;99.90;;;;;;5054952;28;20041;-76
2023/04/29 06:42:06;;;;;;;13.65;8.77;;;10.60;99.90;;;;;;5054129;28;20052;-78
2023/04/29 06:44:32;;;;;;;18.33;8.98;;;10.60;99.90;;;;;;5037384;28;20462;-80
2023/04/29 06:46:57;;;;;;;11.25;7.68;;;10.70;99.90;;;;;;5054738;28;20127;-80
2023/04/29 06:49:23;;;;;;;10.95;7.60;;;10.70;99.90;;;;;;5055152;28;20095;-77
2023/04/29 06:51:49;;;;;;;10.23;6.95;;;11.00;99.90;;;;;;5054724;28;20048;-76
2023/04/29 06:54:14;;;;;;;10.57;7.28;;;11.70;99.90;;;;;;5053567;28;20045;-78
2023/04/29 06:56:40;;;;;;;9.55;7.20;;;12.40;99.90;;;;;;5054808;28;20045;-76
2023/04/29 06:59:06;;;;;;;9.57;6.07;;;13.30;99.90;;;;;;5055162;28;20049;-77
2023/04/29 07:01:32;;;;;;;7.88;5.55;;;13.80;99.90;;;;;;5054801;28;20124;-77
2023/04/29 07:03:57;;;;;;;11.73;7.13;;;14.50;99.90;;;;;;5054718;28;20136;-78
2023/04/29 07:06:23;;;;;;;12.80;6.90;;;15.00;99.90;;;;;;5054749;28;20532;-76
2023/04/29 07:08:49;;;;;;;9.30;6.30;;;16.00;99.90;;;;;;5055844;28;20120;-76
2023/04/29 07:11:15;;;;;;;9.18;5.43;;;15.80;99.90;;;;;;5064258;28;20067;-75
2023/04/29 07:13:40;;;;;;;13.80;5.75;;;16.10;99.90;;;;;;5063922;28;20104;-77
2023/04/29 07:16:15;;;;;;;7.47;6.18;;;15.90;99.90;;;;;;5062822;28;20053;-75
2023/04/29 07:18:41;;;;;;;9.73;5.70;;;16.10;99.90;;;;;;5056969;28;20048;-76
2023/04/29 07:21:07;;;;;;;11.38;6.25;;;15.90;99.90;;;;;;5054501;28;20059;-76
2023/04/29 07:23:32;;;;;;;11.40;5.90;;;15.80;99.90;;;;;;5054074;28;20056;-77
2023/04/29 07:25:58;;;;;;;7.15;6.28;;;16.40;99.90;;;;;;5054361;28;20045;-76
2023/04/29 07:28:24;;;;;;;11.45;6.60;;;16.50;99.90;;;;;;5053955;28;20049;-77
2023/04/29 07:30:50;;;;;;;9.32;6.45;;;16.10;99.90;;;;;;5053828;28;20045;-76
2023/04/29 07:33:16;;;;;;;7.63;5.78;;;15.30;99.80;;;;;;5052857;28;20128;-77
2023/04/29 07:35:43;;;;;;;9.25;6.78;;;16.00;99.90;;;;;;5053796;28;20084;-76
2023/04/29 07:38:09;;;;;;;7.30;6.13;;;15.70;99.90;;;;;;5054419;28;20044;-77
2023/04/29 07:40:34;;;;;;;8.73;5.70;;;16.50;99.90;;;;;;5054253;28;20123;-78
2023/04/29 07:43:03;;;;;;;9.95;6.05;;;17.00;99.90;;;;;;5054879;28;20434;-77
2023/04/29 07:45:29;;;;;;;7.40;6.30;;;17.20;99.90;;;;;;5054271;28;20044;-78
2023/04/29 07:47:55;;;;;;;9.98;5.95;;;18.00;99.90;;;;;;5052463;28;20476;-76
2023/04/29 07:50:21;;;;;;;9.68;6.07;;;17.50;99.90;;;;;;5053671;28;20097;-77
2023/04/29 07:52:47;;;;;;;8.05;6.55;;;17.30;99.90;;;;;;5053365;28;20485;-78
2023/04/29 07:55:12;;;;;;;9.15;6.07;;;16.80;97.30;;;;;;5053780;28;20045;-77
2023/04/29 07:57:38;;;;;;;10.25;6.05;;;16.80;99.90;;;;;;5053476;28;20545;-79
2023/04/29 08:00:05;;;;;;;8.32;6.60;;;17.50;99.90;;;;;;5053660;28;20120;-77
2023/04/29 08:02:31;;;;;;;9.02;6.47;;;17.50;99.90;;;;;;5053529;28;20446;-77
2023/04/29 08:04:57;;;;;;;9.98;6.57;;;18.00;99.90;;;;;;5053455;28;20134;-77
2023/04/29 08:07:22;;;;;;;11.90;6.72;;;18.30;99.90;;;;;;5053030;28;20418;-77
2023/04/29 08:09:48;;;;;;;8.48;7.00;;;18.30;99.90;;;;;;5052788;28;20041;-78
2023/04/29 08:12:14;;;;;;;7.95;6.55;;;18.20;99.90;;;;;;5052547;28;20076;-76
2023/04/29 08:14:39;;;;;;;8.90;6.47;;;17.70;99.90;;;;;;5053249;28;20057;-79
2023/04/29 08:17:06;;;;;;;7.97;6.20;;;17.70;99.90;;;;;;5053349;28;20045;-78
2023/04/29 08:19:31;;;;;;;8.52;6.40;;;18.30;99.90;;;;;;5052616;28;20049;-78
2023/04/29 08:21:57;;;;;;;11.07;6.22;;;19.00;99.90;;;;;;5052866;28;20132;-79
2023/04/29 08:24:23;;;;;;;7.90;6.13;;;19.20;99.90;;;;;;5051997;28;20070;-78
2023/04/29 08:26:50;;;;;;;8.63;5.78;;;18.70;99.90;;;;;;5052861;28;20470;-78
2023/04/29 08:29:16;;;;;;;6.38;5.25;;;18.10;99.90;;;;;;5052676;28;20494;-76
2023/04/29 08:31:42;;;;;;;7.80;5.72;;;17.90;99.90;;;;;;5052664;28;20052;-76
2023/04/29 08:34:07;;;;;;;8.05;5.93;;;17.80;96.80;;;;;;5052641;28;20041;-78
2023/04/29 08:36:33;;;;;;;9.88;5.28;;;17.50;98.40;;;;;;5052641;28;20147;-78
2023/04/29 08:38:59;;;;;;;7.47;5.10;;;17.70;99.90;;;;;;5052950;28;20506;-77
2023/04/29 08:41:24;;;;;;;8.95;5.18;;;17.70;99.90;;;;;;5053299;28;20041;-78
2023/04/29 08:43:50;;;;;;;9.68;4.90;;;18.30;99.90;;;;;;5051998;28;20040;-79
2023/04/29 08:46:17;;;;;;;8.27;5.55;;;18.40;99.90;;;;;;5053219;28;20064;-76
2023/04/29 08:48:43;;;;;;;8.20;5.45;;;18.00;99.90;;;;;;5052795;28;20045;-77
2023/04/29 08:51:12;;;;;;;9.25;5.53;;;17.80;99.90;;;;;;5052570;28;20088;-77
2023/04/29 08:53:38;;;;;;;7.93;4.85;;;17.90;97.60;;;;;;5052535;28;20163;-77
2023/04/29 08:56:13;;;;;;;6.85;5.05;;;18.30;99.90;;;;;;5052360;28;20048;-78
2023/04/29 08:58:41;;;;;;;7.78;5.80;;;18.10;99.90;;;;;;5051629;28;20446;-78
2023/04/29 09:01:08;;;;;;;6.95;5.55;;;18.10;96.00;;;;;;5052213;28;20051;-78
2023/04/29 09:03:43;;;;;;;9.50;5.88;;;18.20;99.90;;;;;;5034959;28;20500;-79
2023/04/29 09:06:11;;;;;;;9.70;5.25;;;18.40;99.90;;;;;;5052502;28;20040;-80
2023/04/29 09:08:38;;;;;;;7.32;5.40;;;18.50;99.90;;;;;;5052272;28;20048;-78
2023/04/29 09:11:07;;;;;;;6.85;5.63;;;18.40;99.90;;;;;;5052403;28;20138;-78
2023/04/29 09:13:32;;;;;;;7.47;5.00;;;18.40;99.90;;;;;;5052198;28;20147;-79
2023/04/29 09:15:58;;;;;;;8.80;5.80;;;18.40;99.90;;;;;;5052061;28;20094;-79
2023/04/29 09:18:46;;;;;;;8.65;5.68;;;18.30;99.90;;;;;;5052079;28;20402;-78
2023/04/29 09:21:14;;;;;;;7.47;5.45;;;17.80;96.00;;;;;;5052407;28;20037;-79
2023/04/29 09:23:40;;;;;;;9.65;5.90;;;18.00;99.90;;;;;;5056330;28;20056;-78
2023/04/29 09:26:06;;;;;;;8.02;5.05;;;18.00;99.90;;;;;;5056238;28;20201;-79
2023/04/29 09:28:32;;;;;;;6.88;6.00;;;18.30;99.90;;;;;;5056312;28;20120;-77
2023/04/29 09:30:58;;;;;;;8.90;5.63;;;18.50;99.90;;;;;;5056470;28;20120;-77
2023/04/29 09:33:27;;;;;;;9.73;5.75;;;18.10;97.50;;;;;;5056315;28;20103;-79
2023/04/29 09:35:53;;;;;;;8.68;6.13;;;18.20;99.90;;;;;;5056570;28;20073;-80
2023/04/29 09:38:20;;;;;;;10.02;5.15;;;18.00;99.90;;;;;;5056160;28;20041;-78
2023/04/29 09:40:46;;;;;;;5.95;4.97;;;18.20;99.90;;;;;;5055945;28;20053;-76
2023/04/29 09:43:17;;;;;;;6.90;4.97;;;18.60;99.90;;;;;;5055885;28;20071;-77
2023/04/29 09:45:47;;;;;;;6.03;4.95;;;18.10;95.10;;;;;;5056083;28;20404;-78
2023/04/29 09:48:14;;;;;;;11.02;4.93;;;18.60;99.90;;;;;;5056086;28;20529;-78
2023/04/29 09:50:42;;;;;;;7.53;5.32;;;18.30;99.90;;;;;;5055960;28;20174;-78
2023/04/29 09:53:10;;;;;;;7.90;5.25;;;17.60;95.10;;;;;;5055980;28;20045;-80
2023/04/29 09:55:56;;;;;;;8.32;5.13;;;17.60;99.90;;;;;;5055982;28;20053;-78
2023/04/29 09:58:30;;;;;;;5.38;4.55;;;17.50;99.90;;;;;;5054788;28;20106;-77
2023/04/29 10:01:02;;;;;;;6.80;4.60;;;18.10;99.90;;;;;;5055595;28;20048;-78
2023/04/29 10:03:36;;;;;;;8.18;4.82;;;18.40;99.90;;;;;;5055591;28;20044;-77
2023/04/29 10:06:04;;;;;;;9.40;4.93;;;18.10;93.80;;;;;;5055560;28;20048;-77
2023/04/29 10:08:31;;;;;;;8.00;4.90;;;17.90;99.50;;;;;;5055889;28;20502;-79
2023/04/29 10:11:01;;;;;;;6.15;4.38;;;18.30;99.30;;;;;;5055544;28;20111;-79
2023/04/29 10:13:28;;;;;;;7.18;4.40;;;17.20;90.00;;;;;;5055652;28;20036;-80
2023/04/29 10:16:09;;;;;;;5.20;4.20;;;17.60;99.50;;;;;;5055728;28;20140;-78
2023/04/29 10:18:39;;;;;;;8.07;4.35;;;17.40;94.30;;;;;;5055691;28;20087;-78
2023/04/29 10:21:08;;;;;;;9.73;5.72;;;17.60;91.80;;;;;;5055632;28;20132;-77
2023/04/29 10:23:35;;;;;;;7.85;4.43;;;17.10;89.70;;;;;;5055234;28;20056;-79
2023/04/29 10:26:02;;;;;;;7.28;5.50;;;17.10;97.00;;;;;;5055260;28;20044;-78
2023/04/29 10:28:31;;;;;;;7.00;4.78;;;16.80;89.50;;;;;;5054765;28;20049;-79
2023/04/29 10:31:03;;;;;;;10.57;4.70;;;16.90;93.20;;;;;;5055281;28;20123;-79
2023/04/29 10:33:34;;;;;;;8.48;4.75;;;17.10;93.90;;;;;;5053348;28;20056;-80
2023/04/29 10:36:01;;;;;;;7.18;5.45;;;17.00;92.70;;;;;;5054273;28;20060;-79
2023/04/29 10:38:40;;;;;;;6.75;4.55;;;17.00;90.80;;;;;;5054894;28;20131;-78
2023/04/29 10:41:25;;;;;;;5.07;3.78;;;16.60;90.70;;;;;;5053794;28;20044;-80
2023/04/29 10:43:54;;;;;;;8.48;4.90;;;16.90;92.10;;;;;;5055277;28;20500;-78
2023/04/29 10:46:28;;;;;;;5.88;4.55;;;17.30;95.20;;;;;;5055479;28;20072;-78
2023/04/29 10:49:00;;;;;;;7.20;4.40;;;18.00;93.50;;;;;;5055329;28;20049;-77
2023/04/29 10:51:32;;;;;;;6.13;3.80;;;17.40;90.20;;;;;;5054848;28;20049;-77
2023/04/29 10:54:02;;;;;;;8.90;4.95;;;17.40;95.10;;;;;;5054089;28;20056;-79
2023/04/29 10:56:49;;;;;;;6.18;4.20;;;16.80;94.00;;;;;;5054619;28;20379;-79
2023/04/29 10:59:19;;;;;;;6.78;4.40;;;16.20;92.00;;;;;;5055113;28;20098;-80
2023/04/29 11:01:49;;;;;;;6.57;4.30;;;16.00;91.50;;;;;;5054923;28;20044;-77
2023/04/29 11:04:17;;;;;;;5.90;4.20;;;15.50;90.00;;;;;;5054592;28;20049;-79
2023/04/29 11:06:50;;;;;;;8.70;5.05;;;15.20;92.80;;;;;;5054617;28;20045;-79
2023/04/29 11:09:20;;;;;;;7.75;4.78;;;15.30;94.50;;;;;;5054071;28;20166;-76
2023/04/29 11:12:04;;;;;;;7.03;4.65;;;14.90;91.60;;;;;;5054426;28;20653;-80
2023/04/29 11:14:33;;;;;;;10.98;5.00;;;14.90;92.90;;;;;;5054224;28;20383;-80
2023/04/29 11:17:08;;;;;;;7.95;4.68;;;15.00;94.20;;;;;;5054359;28;20057;-78
2023/04/29 11:19:35;;;;;;;6.55;5.43;;;15.10;94.10;;;;;;5053881;28;20053;-76
2023/04/29 11:22:33;;;;;;;7.93;5.10;;;15.10;93.70;;;;;;5054922;28;20053;-79
2023/04/29 11:25:03;;;;;;;9.43;4.85;;;15.20;91.80;;;;;;5041734;28;20505;-76
2023/04/29 11:27:33;;;;;;;5.75;3.45;;;15.20;92.50;;;;;;5054429;28;20045;-76
2023/04/29 11:30:02;;;;;;;5.72;3.28;;;15.10;91.50;;;;;;5054426;28;20060;-78
2023/04/29 11:32:33;;;;;;;5.05;3.83;;;15.20;91.80;;;;;;5057975;28;20503;-77
2023/04/29 11:35:13;;;;;;;6.93;4.03;;;15.20;93.00;;;;;;5058122;28;20047;-78
2023/04/29 11:37:41;;;;;;;6.22;3.95;;;15.30;90.50;;;;;;5057415;28;20087;-76
2023/04/29 11:40:07;;;;;;;4.72;3.50;;;15.10;91.30;;;;;;5056976;28;20107;-77
2023/04/29 11:42:37;;;;;;;6.75;4.63;;;15.10;93.20;;;;;;5054003;28;20045;-77
2023/04/29 11:45:03;;;;;;;4.57;2.72;;;15.00;91.60;;;;;;5052741;28;20053;-77
2023/04/29 11:47:29;;;;;;;5.13;3.00;;;15.20;91.60;;;;;;5053131;28;20056;-77
2023/04/29 11:50:07;;;;;;;3.88;2.58;;;15.10;88.30;;;;;;5053551;28;20076;-77
2023/04/29 11:52:35;;;;;;;3.28;2.70;;;15.00;88.20;;;;;;5054034;28;20501;-77
2023/04/29 11:55:02;;;;;;;2.92;2.63;;;14.90;87.10;;;;;;5052291;28;20453;-77
2023/04/29 11:57:28;;;;;;;3.13;2.30;;;14.80;90.90;;;;;;5052782;28;20079;-78
2023/04/29 11:59:54;;;;;;;5.22;2.97;;;14.80;89.80;;;;;;5053454;28;20068;-76
2023/04/29 12:02:29;;;;;;;5.55;2.97;;;15.00;89.70;;;;;;5053301;28;20056;-77
2023/04/29 12:04:56;;;;;;;2.67;2.47;;;14.70;90.60;;;;;;5053514;28;20053;-76
2023/04/29 12:07:23;;;;;;;3.95;2.47;;;14.80;91.80;;;;;;5053218;28;20118;-75
2023/04/29 12:09:49;;;;;;;7.00;3.35;;;14.70;91.70;;;;;;5052092;28;20045;-76
2023/04/29 12:12:15;;;;;;;4.65;3.10;;;14.60;92.90;;;;;;5053206;28;20077;-78
2023/04/29 12:14:42;;;;;;;2.95;2.30;;;14.70;92.60;;;;;;5053243;28;20057;-77
2023/04/29 12:17:11;;;;;;;2.83;2.45;;;14.70;93.10;;;;;;5053127;28;20056;-77
2023/04/29 12:19:38;;;;;;;3.38;2.67;;;14.80;90.60;;;;;;5052993;28;20486;-76
2023/04/29 12:22:04;;;;;;;2.90;2.50;;;15.00;91.60;;;;;;5052986;28;20045;-78
2023/04/29 12:24:38;;;;;;;4.72;3.00;;;14.70;89.90;;;;;;5053002;28;20091;-78
2023/04/29 12:27:06;;;;;;;;;;;14.60;89.80;;;;;;5053847;28;20084;-77
2023/04/29 12:29:32;;;;;;;2.72;2.47;;;14.50;90.60;;;;;;5053172;28;19920;-76
2023/04/29 12:31:58;;;;;;;4.13;2.65;;;14.80;92.20;;;;;;5051732;28;20440;-75
2023/04/29 12:34:30;;;;;;;3.15;2.38;;;15.00;90.40;;;;;;5052840;28;20132;-77
2023/04/29 12:36:58;;;;;;;4.60;2.10;;;15.00;88.80;;;;;;5052600;28;20063;-75
2023/04/29 12:39:25;;;;;;;4.50;2.60;;;15.00;87.80;;;;;;5051347;28;20128;-76
2023/04/29 12:41:56;;;;;;;2.67;2.45;;;14.70;84.10;;;;;;5053121;28;20044;-75
2023/04/29 12:44:23;;;;;;;3.17;2.38;;;14.80;87.00;;;;;;5051652;28;20493;-76